createdAt,value
2018-04-26T00:01:14.500Z,23.10
2018-04-26T00:03:41.962Z,23.10
2018-04-26T00:06:09.480Z,23.10
2018-04-26T00:08:37.903Z,23.10
2018-04-26T00:11:06.848Z,23.10
2018-04-26T00:13:34.317Z,23.10
2018-04-26T00:16:01.821Z,23.10
2018-04-26T00:18:30.259Z,23.10
2018-04-26T00:20:58.612Z,23.10
2018-04-26T00:23:26.100Z,23.10
2018-04-26T00:25:54.335Z,23.10
2018-04-26T00:28:21.811Z,23.10
2018-04-26T00:30:49.291Z,23.10
2018-04-26T00:33:16.758Z,23.10
2018-04-26T00:35:44.243Z,23.10
2018-04-26T00:38:12.485Z,23.10
2018-04-26T00:40:39.948Z,23.00
2018-04-26T00:43:07.432Z,23.00
2018-04-26T00:45:35.660Z,23.00
2018-04-26T00:48:03.168Z,23.00
2018-04-26T00:50:30.634Z,23.00
2018-04-26T00:52:58.860Z,23.00
2018-04-26T00:55:26.319Z,23.00
2018-04-26T00:57:54.495Z,23.00
2018-04-26T01:00:23.480Z,23.00
2018-04-26T01:02:51.636Z,23.00
2018-04-26T01:05:19.112Z,23.00
2018-04-26T01:07:46.565Z,23.00
2018-04-26T01:10:14.031Z,23.00
2018-04-26T01:12:41.510Z,23.00
2018-04-26T01:15:09.724Z,23.00
2018-04-26T01:17:38.039Z,23.00
2018-04-26T01:20:05.565Z,23.00
2018-04-26T01:22:33.759Z,23.00
2018-04-26T01:25:01.257Z,23.00
2018-04-26T01:27:29.500Z,23.00
2018-04-26T01:29:56.955Z,22.90
2018-04-26T01:32:24.495Z,23.00
2018-04-26T01:34:51.959Z,22.90
2018-04-26T01:37:31.245Z,23.00
2018-04-26T01:39:58.704Z,23.00
2018-04-26T01:42:26.164Z,22.90
2018-04-26T01:44:53.851Z,22.90
2018-04-26T01:47:22.024Z,22.90
2018-04-26T01:49:49.655Z,22.90
2018-04-26T01:52:17.139Z,22.90
2018-04-26T01:54:44.596Z,22.90
2018-04-26T01:57:12.672Z,22.90
2018-04-26T01:59:40.211Z,22.90
2018-04-26T02:02:07.660Z,22.90
2018-04-26T02:04:35.167Z,22.90
2018-04-26T02:07:02.632Z,22.90
2018-04-26T02:09:30.083Z,22.90
2018-04-26T02:11:57.559Z,22.90
2018-04-26T02:14:26.515Z,22.90
2018-04-26T02:16:53.975Z,22.90
2018-04-26T02:19:21.445Z,22.90
2018-04-26T02:21:49.690Z,22.90
2018-04-26T02:24:17.136Z,22.90
2018-04-26T02:26:45.364Z,22.90
2018-04-26T02:29:12.840Z,22.90
2018-04-26T02:31:41.064Z,22.90
2018-04-26T02:34:08.553Z,22.90
2018-04-26T02:36:36.772Z,22.90
2018-04-26T02:39:04.240Z,22.90
2018-04-26T02:41:31.697Z,22.90
2018-04-26T02:43:59.845Z,22.90
2018-04-26T02:46:27.316Z,22.90
2018-04-26T02:48:54.788Z,22.90
2018-04-26T02:51:22.841Z,22.90
2018-04-26T02:53:50.324Z,22.90
2018-04-26T02:56:17.784Z,22.90
2018-04-26T02:58:45.255Z,22.90
2018-04-26T03:01:12.757Z,22.90
2018-04-26T03:03:40.186Z,22.80
2018-04-26T03:06:09.168Z,22.90
2018-04-26T03:08:38.134Z,22.80
2018-04-26T03:11:05.613Z,22.80
2018-04-26T03:13:33.847Z,22.90
2018-04-26T03:16:01.303Z,22.80
2018-04-26T03:18:28.856Z,22.80
2018-04-26T03:20:56.344Z,22.80
2018-04-26T03:23:23.984Z,22.80
2018-04-26T03:25:51.435Z,22.90
2018-04-26T03:28:18.916Z,22.90
2018-04-26T03:30:46.383Z,22.90
2018-04-26T03:33:13.881Z,22.90
2018-04-26T03:35:41.356Z,22.90
2018-04-26T03:38:09.660Z,22.90
2018-04-26T03:40:37.113Z,22.90
2018-04-26T03:43:04.572Z,22.90
2018-04-26T03:45:32.080Z,22.80
2018-04-26T03:48:00.307Z,22.80
2018-04-26T03:50:27.772Z,22.80
2018-04-26T03:52:55.249Z,22.80
2018-04-26T03:55:23.537Z,22.80
2018-04-26T03:57:52.384Z,22.80
2018-04-26T04:00:31.900Z,22.80
2018-04-26T04:03:11.412Z,22.80
2018-04-26T04:05:45.872Z,22.80
2018-04-26T04:08:13.331Z,22.80
2018-04-26T04:10:40.811Z,22.80
2018-04-26T04:13:09.008Z,22.80
2018-04-26T04:15:37.276Z,22.80
2018-04-26T04:18:05.525Z,22.80
2018-04-26T04:20:32.992Z,22.80
2018-04-26T04:23:01.985Z,22.80
2018-04-26T04:25:31.900Z,22.80
2018-04-26T04:27:59.433Z,22.80
2018-04-26T04:30:26.817Z,22.80
2018-04-26T04:32:54.356Z,22.80
2018-04-26T04:35:21.820Z,22.80
2018-04-26T04:37:49.276Z,22.80
2018-04-26T04:40:16.904Z,22.80
2018-04-26T04:42:44.436Z,22.80
2018-04-26T04:45:12.010Z,22.80
2018-04-26T04:47:39.444Z,22.80
2018-04-26T04:50:07.672Z,22.80
2018-04-26T04:52:35.151Z,22.80
2018-04-26T04:55:02.616Z,22.80
2018-04-26T04:57:30.937Z,22.80
2018-04-26T04:59:58.520Z,22.80
2018-04-26T05:02:25.991Z,22.80
2018-04-26T05:04:53.459Z,22.80
2018-04-26T05:07:21.010Z,22.80
2018-04-26T05:09:49.163Z,22.90
2018-04-26T05:12:16.624Z,22.90
2018-04-26T05:14:44.097Z,22.90
2018-04-26T05:17:11.659Z,22.90
2018-04-26T05:19:39.161Z,23.00
2018-04-26T05:22:07.999Z,23.10
2018-04-26T05:24:35.484Z,23.10
2018-04-26T05:27:03.724Z,23.20
2018-04-26T05:29:31.277Z,23.20
2018-04-26T05:31:59.494Z,23.20
2018-04-26T05:34:27.724Z,23.30
2018-04-26T05:36:55.316Z,23.30
2018-04-26T05:39:22.768Z,23.40
2018-04-26T05:41:50.269Z,23.40
2018-04-26T05:44:17.732Z,23.50
2018-04-26T05:46:46.106Z,23.60
2018-04-26T05:49:13.584Z,23.70
2018-04-26T05:51:41.118Z,23.70
2018-04-26T05:54:08.576Z,23.80
2018-04-26T05:56:36.056Z,23.80
2018-04-26T05:59:03.512Z,23.80
2018-04-26T06:01:31.005Z,23.90
2018-04-26T06:03:58.545Z,24.00
2018-04-26T06:06:26.176Z,24.00
2018-04-26T06:08:53.714Z,24.10
2018-04-26T06:11:21.212Z,24.10
2018-04-26T06:13:48.645Z,24.10
2018-04-26T06:16:16.124Z,24.20
2018-04-26T06:18:43.616Z,24.20
2018-04-26T06:21:11.828Z,24.20
2018-04-26T06:23:39.297Z,24.20
2018-04-26T06:26:06.768Z,24.20
2018-04-26T06:28:34.234Z,24.30
2018-04-26T06:31:02.612Z,24.30
2018-04-26T06:33:30.438Z,24.30
2018-04-26T06:35:57.911Z,24.40
2018-04-26T06:38:25.509Z,24.40
2018-04-26T06:40:53.002Z,24.40
2018-04-26T06:43:20.476Z,24.50
2018-04-26T06:45:47.956Z,24.50
2018-04-26T06:48:15.493Z,24.50
2018-04-26T06:50:42.980Z,24.60
2018-04-26T06:53:11.217Z,24.60
2018-04-26T06:55:38.672Z,24.60
2018-04-26T06:58:06.144Z,24.60
2018-04-26T07:00:33.612Z,24.60
2018-04-26T07:03:01.099Z,24.70
2018-04-26T07:05:28.584Z,24.70
2018-04-26T07:07:56.067Z,24.70
2018-04-26T07:10:23.532Z,24.70
2018-04-26T07:12:50.993Z,24.80
2018-04-26T07:15:18.457Z,24.80
2018-04-26T07:17:45.927Z,24.90
2018-04-26T07:20:13.397Z,24.90
2018-04-26T07:22:41.660Z,24.90
2018-04-26T07:25:09.114Z,24.90
2018-04-26T07:27:38.612Z,24.90
2018-04-26T07:30:06.904Z,24.90
2018-04-26T07:32:35.165Z,24.90
2018-04-26T07:35:02.637Z,24.90
2018-04-26T07:37:31.649Z,24.90
2018-04-26T07:39:59.876Z,24.90
2018-04-26T07:42:27.343Z,24.90
2018-04-26T07:44:54.806Z,24.90
2018-04-26T07:47:23.845Z,24.90
2018-04-26T07:49:51.324Z,24.90
2018-04-26T07:52:18.800Z,24.90
2018-04-26T07:54:47.268Z,24.90
2018-04-26T07:57:14.754Z,24.90
2018-04-26T07:59:43.752Z,25.00
2018-04-26T08:02:11.220Z,25.00
2018-04-26T08:04:40.189Z,25.10
2018-04-26T08:07:08.540Z,25.00
2018-04-26T08:09:36.005Z,25.10
2018-04-26T08:12:03.468Z,25.10
2018-04-26T08:14:30.928Z,25.10
2018-04-26T08:16:59.016Z,25.10
2018-04-26T08:19:27.995Z,25.10
2018-04-26T08:21:55.477Z,25.10
2018-04-26T08:24:22.955Z,25.20
2018-04-26T08:26:51.196Z,25.20
2018-04-26T08:29:18.683Z,25.20
2018-04-26T08:31:47.485Z,25.20
2018-04-26T08:34:15.733Z,25.20
2018-04-26T08:36:43.983Z,25.20
2018-04-26T08:39:12.216Z,25.30
2018-04-26T08:41:40.413Z,25.20
2018-04-26T08:44:07.906Z,25.30
2018-04-26T08:46:35.373Z,25.30
2018-04-26T08:49:03.600Z,25.30
2018-04-26T08:51:31.102Z,25.30
2018-04-26T08:53:58.569Z,25.40
2018-04-26T08:56:26.793Z,25.50
2018-04-26T08:58:54.261Z,25.40
2018-04-26T09:01:21.740Z,25.50
2018-04-26T09:03:49.193Z,25.50
2018-04-26T09:06:17.441Z,25.60
2018-04-26T09:08:45.704Z,25.60
2018-04-26T09:11:13.168Z,25.60
2018-04-26T09:13:40.633Z,25.60
2018-04-26T09:16:08.098Z,25.70
2018-04-26T09:18:36.397Z,25.60
2018-04-26T09:21:05.376Z,25.70
2018-04-26T09:23:32.907Z,25.60
2018-04-26T09:26:00.409Z,25.60
2018-04-26T09:28:28.736Z,25.60
2018-04-26T09:30:56.329Z,25.60
2018-04-26T09:33:23.819Z,25.60
2018-04-26T09:35:52.540Z,25.60
2018-04-26T09:38:20.100Z,25.60
2018-04-26T09:40:47.582Z,25.60
2018-04-26T09:43:16.537Z,25.70
2018-04-26T09:45:44.016Z,25.60
2018-04-26T09:48:11.494Z,25.70
2018-04-26T09:50:38.949Z,25.70
2018-04-26T09:53:07.174Z,25.70
2018-04-26T09:55:35.350Z,25.80
2018-04-26T09:58:03.540Z,25.80
2018-04-26T10:00:31.115Z,25.80
2018-04-26T10:02:58.685Z,25.90
2018-04-26T10:05:31.872Z,25.90
2018-04-26T10:08:00.159Z,25.90
2018-04-26T10:10:27.618Z,25.90
2018-04-26T10:12:57.808Z,26.00
2018-04-26T10:15:25.288Z,26.00
2018-04-26T10:17:54.258Z,26.00
2018-04-26T10:20:22.303Z,26.00
2018-04-26T10:22:49.795Z,26.00
2018-04-26T10:25:17.265Z,26.00
2018-04-26T10:27:45.404Z,26.00
2018-04-26T10:30:12.877Z,25.90
2018-04-26T10:32:40.916Z,26.00
2018-04-26T10:35:08.469Z,26.00
2018-04-26T10:37:35.968Z,26.00
2018-04-26T10:40:03.461Z,26.10
2018-04-26T10:42:32.294Z,26.10
2018-04-26T10:44:59.765Z,26.10
2018-04-26T10:47:27.265Z,26.10
2018-04-26T10:49:55.500Z,26.10
2018-04-26T10:52:22.988Z,26.10
2018-04-26T10:54:51.238Z,26.20
2018-04-26T10:57:18.720Z,26.10
2018-04-26T10:59:46.977Z,26.10
2018-04-26T11:02:14.583Z,26.10
2018-04-26T11:04:42.049Z,26.10
2018-04-26T11:07:09.966Z,26.10
2018-04-26T11:09:37.458Z,26.10
2018-04-26T11:12:04.952Z,26.10
2018-04-26T11:14:32.425Z,26.10
2018-04-26T11:17:01.413Z,26.00
2018-04-26T11:19:30.175Z,26.00
2018-04-26T11:21:57.752Z,26.00
2018-04-26T11:24:25.371Z,26.00
2018-04-26T11:26:52.982Z,26.00
2018-04-26T11:29:20.623Z,26.10
2018-04-26T11:31:48.091Z,26.20
2018-04-26T11:34:15.581Z,26.20
2018-04-26T11:36:44.350Z,26.40
2018-04-26T11:39:11.880Z,26.30
2018-04-26T11:41:39.372Z,26.40
2018-04-26T11:44:06.862Z,26.50
2018-04-26T11:46:34.363Z,26.50
2018-04-26T11:49:01.861Z,26.50
2018-04-26T11:51:30.092Z,26.50
2018-04-26T11:53:57.580Z,26.50
2018-04-26T11:56:25.086Z,26.50
2018-04-26T11:58:53.406Z,26.40
2018-04-26T12:01:23.236Z,26.30
2018-04-26T12:03:51.536Z,26.30
2018-04-26T12:06:19.031Z,26.20
2018-04-26T12:08:46.526Z,26.20
2018-04-26T12:11:14.783Z,26.20
2018-04-26T12:13:42.278Z,26.10
2018-04-26T12:16:09.752Z,26.10
2018-04-26T12:18:37.219Z,26.10
2018-04-26T12:21:04.708Z,26.00
2018-04-26T12:23:33.640Z,25.90
2018-04-26T12:26:01.134Z,25.90
2018-04-26T12:28:28.645Z,25.90
2018-04-26T12:30:56.896Z,25.90
2018-04-26T12:33:24.840Z,25.80
2018-04-26T12:35:52.317Z,25.90
2018-04-26T12:38:19.788Z,25.90
2018-04-26T12:40:48.038Z,26.00
2018-04-26T12:43:17.012Z,26.00
2018-04-26T12:45:44.541Z,26.00
2018-04-26T12:48:12.787Z,26.00
2018-04-26T12:50:41.099Z,26.00
2018-04-26T12:53:08.556Z,26.00
2018-04-26T12:55:36.036Z,26.00
2018-04-26T12:58:03.560Z,26.00
2018-04-26T13:00:31.546Z,26.00
2018-04-26T13:02:59.028Z,26.00
2018-04-26T13:05:26.503Z,26.00
2018-04-26T13:07:55.457Z,25.90
2018-04-26T13:10:22.971Z,25.90
2018-04-26T13:12:50.418Z,25.90
2018-04-26T13:15:17.889Z,25.90
2018-04-26T13:17:46.117Z,25.80
2018-04-26T13:20:14.474Z,25.80
2018-04-26T13:22:41.943Z,25.70
2018-04-26T13:25:09.413Z,25.70
2018-04-26T13:27:38.338Z,25.70
2018-04-26T13:30:06.657Z,25.70
2018-04-26T13:32:34.141Z,25.60
2018-04-26T13:35:02.984Z,25.60
2018-04-26T13:37:30.463Z,25.50
2018-04-26T13:39:58.043Z,25.50
2018-04-26T13:42:26.288Z,25.50
2018-04-26T13:44:54.465Z,25.50
2018-04-26T13:47:21.944Z,25.40
2018-04-26T16:58:53.759Z,18.00
2018-04-26T17:01:21.224Z,16.40
2018-04-26T17:03:48.657Z,15.40
2018-04-26T17:06:16.076Z,14.80
2018-04-26T17:08:43.525Z,14.50
2018-04-26T17:11:10.945Z,14.30
2018-04-26T17:13:38.396Z,14.10
2018-04-26T17:16:05.846Z,14.00
2018-04-26T17:18:33.536Z,13.90
2018-04-26T17:21:01.151Z,13.80
2018-04-26T17:23:28.502Z,13.70
2018-04-26T17:25:56.016Z,13.60
2018-04-26T17:28:23.432Z,13.40
2018-04-26T17:30:50.904Z,13.40
2018-04-26T17:33:18.333Z,13.30
2018-04-26T17:35:45.744Z,13.30
2018-04-26T17:38:13.178Z,13.10
2018-04-26T17:40:40.620Z,13.10
2018-04-26T17:43:08.088Z,13.00
2018-04-26T17:45:35.536Z,12.90
2018-04-26T17:48:03.011Z,12.90
2018-04-26T17:50:30.394Z,12.80
2018-04-26T17:52:58.595Z,12.70
2018-04-26T17:55:26.085Z,12.60
2018-04-26T17:57:53.555Z,12.60
2018-04-26T18:00:20.990Z,12.50
2018-04-26T18:02:48.449Z,12.40
2018-04-26T18:05:15.885Z,12.40
2018-04-26T18:07:43.303Z,12.30
2018-04-26T18:10:11.532Z,12.10
2018-04-26T18:12:38.948Z,12.10
2018-04-26T18:15:06.380Z,12.10
2018-04-26T18:17:33.846Z,12.00
2018-04-26T18:20:08.576Z,11.80
2018-04-26T18:22:29.887Z,11.80
2018-04-26T18:24:58.104Z,11.70
2018-04-26T18:27:25.564Z,11.70
2018-04-26T18:29:53.021Z,11.60
2018-04-26T18:32:20.467Z,11.50
2018-04-26T18:34:47.895Z,11.40
2018-04-26T18:37:15.316Z,11.30
2018-04-26T18:39:42.749Z,11.20
2018-04-26T18:42:10.178Z,11.20
2018-04-26T18:44:37.653Z,11.10
2018-04-26T18:47:05.104Z,11.10
2018-04-26T18:49:32.564Z,11.00
2018-04-26T18:52:01.056Z,11.00
2018-04-26T18:54:28.501Z,11.00
2018-04-26T18:56:55.955Z,10.90
2018-04-26T18:59:23.412Z,10.70
2018-04-26T19:01:51.184Z,10.60
2018-04-26T19:04:18.632Z,10.60
2018-04-26T19:06:46.065Z,10.50
2018-04-26T19:09:13.498Z,10.40
2018-04-26T19:11:41.717Z,10.30
2018-04-26T19:14:09.154Z,10.30
2018-04-26T19:16:36.560Z,10.30
2018-04-26T19:19:03.997Z,10.20
2018-04-26T19:21:31.433Z,10.10
2018-04-26T19:23:58.892Z,10.00
2018-04-26T19:26:26.332Z,9.90
2018-04-26T19:28:53.804Z,9.90
2018-04-26T19:31:21.229Z,9.80
2018-04-26T19:33:48.667Z,9.80
2018-04-26T19:36:16.888Z,9.70
2018-04-26T19:38:44.340Z,9.70
2018-04-26T19:41:11.790Z,9.60
2018-04-26T19:43:39.260Z,9.60
2018-04-26T19:46:06.720Z,9.60
2018-04-26T19:48:34.173Z,9.50
2018-04-26T19:51:01.601Z,9.30
2018-04-26T19:53:29.071Z,9.30
2018-04-26T19:55:56.499Z,9.20
2018-04-26T19:58:24.718Z,9.00
2018-04-26T20:00:52.354Z,9.00
2018-04-26T20:03:19.842Z,9.00
2018-04-26T20:05:47.291Z,8.90
2018-04-26T20:08:14.748Z,8.90
2018-04-26T20:10:42.212Z,8.80
2018-04-26T20:13:09.737Z,8.80
2018-04-26T20:15:37.152Z,8.90
2018-04-26T20:18:05.332Z,8.80
2018-04-26T20:20:33.533Z,8.70
2018-04-26T20:23:00.953Z,8.70
2018-04-26T20:25:29.153Z,8.80
2018-04-26T20:27:56.576Z,8.80
2018-04-26T20:30:24.825Z,8.90
2018-04-26T20:32:52.255Z,8.80
2018-04-26T20:35:19.810Z,8.80
2018-04-26T20:37:47.216Z,8.80
2018-04-26T20:40:16.217Z,8.50
2018-04-26T20:42:44.472Z,8.50
2018-04-26T20:45:11.989Z,8.50
2018-04-26T20:47:39.475Z,8.50
2018-04-26T20:50:06.917Z,8.50
2018-04-26T20:52:34.364Z,8.60
2018-04-26T20:55:01.816Z,8.60
2018-04-26T20:57:29.284Z,8.50
2018-04-26T20:59:56.733Z,8.50
2018-04-26T21:02:24.282Z,8.40
2018-04-26T21:04:51.733Z,8.30
2018-04-26T21:07:19.162Z,8.30
2018-04-26T21:09:47.378Z,8.20
2018-04-26T21:12:14.796Z,8.20
2018-04-26T21:14:42.286Z,8.20
2018-04-26T21:17:09.789Z,8.10
2018-04-26T21:19:37.209Z,8.10
2018-04-26T21:22:04.658Z,8.10
2018-04-26T21:24:32.116Z,8.10
2018-04-26T21:26:59.544Z,8.00
2018-04-26T21:29:26.999Z,8.00
2018-04-26T21:31:54.489Z,7.90
2018-04-26T21:34:21.913Z,7.90
2018-04-26T21:36:49.392Z,7.80
2018-04-26T21:39:16.858Z,7.80
2018-04-26T21:41:44.292Z,7.70
2018-04-26T21:44:11.717Z,7.80
2018-04-26T21:46:39.957Z,7.70
2018-04-26T21:49:07.380Z,7.70
2018-04-26T21:51:40.416Z,7.60
2018-04-26T21:54:13.573Z,7.60
2018-04-26T21:56:46.725Z,7.50
2018-04-26T21:59:19.837Z,7.40
2018-04-26T22:01:52.884Z,7.40
2018-04-26T22:04:32.873Z,7.40
2018-04-26T22:07:00.340Z,7.40
2018-04-26T22:09:27.820Z,7.40
2018-04-26T22:11:55.256Z,7.30
2018-04-26T22:14:22.672Z,7.30
2018-04-26T22:16:50.186Z,7.30
2018-04-26T22:19:17.616Z,7.30
2018-04-26T22:21:45.044Z,7.40
2018-04-26T22:24:12.488Z,7.30
2018-04-26T22:26:40.000Z,7.30
2018-04-26T22:29:07.431Z,7.30
2018-04-26T22:31:34.901Z,7.30
2018-04-26T22:34:02.322Z,7.30
2018-04-26T22:36:29.749Z,7.30
2018-04-26T22:38:57.978Z,7.40
2018-04-26T22:41:25.416Z,7.40
2018-04-26T22:43:52.840Z,7.40
2018-04-26T22:46:21.260Z,7.60
2018-04-26T22:48:48.684Z,7.60
2018-04-26T22:51:16.131Z,7.70
2018-04-26T22:53:44.331Z,8.00
2018-04-26T22:56:11.803Z,8.00
2018-04-26T22:58:39.247Z,8.20
2018-04-26T23:01:06.680Z,8.30
2018-04-26T23:03:34.108Z,8.40
2018-04-26T23:06:01.637Z,8.50
2018-04-26T23:08:29.088Z,8.60
2018-04-26T23:10:56.541Z,8.70
2018-04-26T23:13:24.138Z,8.70
2018-04-26T23:15:51.657Z,8.80
2018-04-26T23:18:19.085Z,8.80
2018-04-26T23:20:46.564Z,8.80
2018-04-26T23:23:14.010Z,8.70
2018-04-26T23:25:41.436Z,8.60
2018-04-26T23:28:09.640Z,8.30
2018-04-26T23:30:37.060Z,8.30
2018-04-26T23:33:05.268Z,8.10
2018-04-26T23:35:32.706Z,8.10
2018-04-26T23:38:00.192Z,8.00
2018-04-26T23:40:27.633Z,7.90
2018-04-26T23:42:55.108Z,7.90
2018-04-26T23:45:22.547Z,7.90
2018-04-26T23:47:50.020Z,7.80
2018-04-26T23:50:17.464Z,7.70
2018-04-26T23:52:44.887Z,7.60
2018-04-26T23:55:12.308Z,7.40
2018-04-26T23:57:39.739Z,7.30
